Time;durP1;ratioP1;P1;durP2;ratioP2;P2;SDS_P1;SDS_P2;PMS_P1;PMS_P2;Temp;Humidity;BMP_temperature;BMP_pressure;BME280_temperature;BME280_humidity;BME280_pressure;Samples;Min_cycle;Max_cycle;Signal;HPM_P1;HPM_P2
2022/05/28 00:01:57;;;;;;;7.65;4.97;;;563.80;2432.00;;;;;;5052596;28;20132;-74
2022/05/28 00:04:23;;;;;;;9.02;4.07;;;563.80;2432.00;;;;;;5052588;28;20381;-76
2022/05/28 00:06:49;;;;;;;7.13;4.28;;;563.80;2432.00;;;;;;5052740;28;20025;-75
2022/05/28 00:09:14;;;;;;;7.93;4.47;;;564.00;2432.00;;;;;;5052657;28;20021;-76
2022/05/28 00:11:41;;;;;;;7.55;4.22;;;564.10;2432.00;;;;;;5052661;28;20032;-78
2022/05/28 00:14:08;;;;;;;7.15;4.28;;;563.90;2432.00;;;;;;5049954;28;20017;-74
2022/05/28 00:16:36;;;;;;;5.32;4.20;;;564.10;2432.00;;;;;;5052640;28;20049;-74
2022/05/28 00:19:02;;;;;;;4.80;3.60;;;564.10;2432.00;;;;;;5052979;28;20032;-76
2022/05/28 00:21:28;;;;;;;13.00;4.30;;;564.10;2432.00;;;;;;5052297;28;20024;-75
2022/05/28 00:23:54;;;;;;;6.93;4.38;;;564.10;2432.00;;;;;;5052381;28;20389;-76
2022/05/28 00:26:20;;;;;;;6.85;4.85;;;564.10;2432.00;;;;;;5052392;28;20025;-75
2022/05/28 00:28:46;;;;;;;8.88;4.70;;;588.80;2432.00;;;;;;5052289;28;20024;-74
2022/05/28 00:31:12;;;;;;;11.60;4.97;;;564.10;2432.00;;;;;;5049833;28;20036;-74
2022/05/28 00:33:38;;;;;;;7.07;5.07;;;588.80;2432.00;;;;;;5054242;28;20025;-74
2022/05/28 00:36:08;;;;;;;7.95;5.45;;;564.10;2432.00;;;;;;5052341;28;20021;-75
2022/05/28 00:38:34;;;;;;;8.13;4.65;;;564.10;2432.00;;;;;;5049769;28;20118;-75
2022/05/28 00:41:00;;;;;;;6.95;4.90;;;564.10;2432.00;;;;;;5052388;28;20032;-75
2022/05/28 00:43:27;;;;;;;8.35;5.03;;;564.10;2432.00;;;;;;5052478;28;20465;-75
2022/05/28 00:46:02;;;;;;;10.50;5.50;;;564.10;2432.00;;;;;;5053698;28;20025;-75
2022/05/28 00:48:32;;;;;;;9.02;5.43;;;564.10;2432.00;;;;;;5056210;28;20098;-76
2022/05/28 00:51:07;;;;;;;9.60;5.57;;;564.10;2432.00;;;;;;5053607;28;20021;-75
2022/05/28 00:53:34;;;;;;;10.30;5.65;;;564.10;2432.00;;;;;;5055067;28;20029;-74
2022/05/28 00:56:03;;;;;;;6.85;5.15;;;564.10;2432.00;;;;;;5056024;28;20036;-76
2022/05/28 00:58:29;;;;;;;7.90;5.57;;;564.10;2432.00;;;;;;5055385;28;20579;-75
2022/05/28 01:00:56;;;;;;;9.73;5.68;;;564.10;2432.00;;;;;;5055917;28;20035;-75
2022/05/28 01:03:43;;;;;;;7.97;5.15;;;564.10;2432.00;;;;;;5055864;28;20067;-77
2022/05/28 01:06:18;;;;;;;7.65;5.28;;;564.10;2432.00;;;;;;5054714;28;20023;-75
2022/05/28 01:08:56;;;;;;;8.98;5.45;;;588.80;2432.00;;;;;;5053828;28;20075;-75
2022/05/28 01:11:44;;;;;;;10.98;5.60;;;564.10;2432.00;;;;;;5053354;28;20021;-78
2022/05/28 01:14:25;;;;;;;10.90;5.82;;;564.10;2432.00;;;;;;5054539;28;20049;-78
2022/05/28 01:16:55;;;;;;;11.77;5.97;;;564.10;2432.00;;;;;;5054715;28;20021;-76
2022/05/28 01:19:42;;;;;;;9.20;6.43;;;564.00;2432.00;;;;;;5052993;28;20036;-75
2022/05/28 01:22:12;;;;;;;9.23;5.90;;;564.10;2432.00;;;;;;5054086;28;20049;-74
2022/05/28 01:25:25;;;;;;;11.18;6.18;;;564.00;2432.00;;;;;;5052739;28;20021;-75
2022/05/28 01:27:58;;;;;;;12.52;5.78;;;563.80;2432.00;;;;;;5054144;28;20027;-75
2022/05/28 01:30:24;;;;;;;8.38;5.45;;;563.70;2432.00;;;;;;5053332;28;20121;-75
2022/05/28 01:32:54;;;;;;;7.97;5.68;;;563.80;2432.00;;;;;;5055285;28;20452;-74
2022/05/28 01:35:22;;;;;;;6.55;5.20;;;563.90;2432.00;;;;;;5052589;28;20028;-74
2022/05/28 01:37:49;;;;;;;6.95;5.25;;;563.80;2432.00;;;;;;5053985;28;20610;-77
2022/05/28 01:40:16;;;;;;;8.07;5.60;;;563.70;2432.00;;;;;;5054913;28;20485;-75
2022/05/28 01:42:47;;;;;;;10.70;7.30;;;563.70;2432.00;;;;;;5055149;28;20009;-75
2022/05/28 01:45:15;;;;;;;11.20;6.28;;;563.80;2432.00;;;;;;5055024;28;20074;-75
2022/05/28 01:47:43;;;;;;;11.90;7.03;;;563.80;2432.00;;;;;;5052577;28;20456;-75
2022/05/28 01:50:11;;;;;;;12.00;6.15;;;563.80;2432.00;;;;;;5054919;28;20380;-77
2022/05/28 01:52:39;;;;;;;13.48;7.07;;;563.70;2432.00;;;;;;5054889;28;20066;-77
2022/05/28 01:55:06;;;;;;;13.15;7.88;;;563.60;2432.00;;;;;;5054792;28;20017;-76
2022/05/28 01:57:32;;;;;;;10.90;7.55;;;563.40;2432.00;;;;;;5054686;28;20028;-75
2022/05/28 01:59:58;;;;;;;13.10;7.57;;;563.50;2432.00;;;;;;5053287;28;20049;-75
2022/05/28 02:02:24;;;;;;;11.23;7.85;;;538.50;2406.40;;;;;;5054751;28;20031;-76
2022/05/28 02:04:50;;;;;;;12.85;7.68;;;563.20;2432.00;;;;;;5054809;28;20096;-74
2022/05/28 02:07:17;;;;;;;12.68;7.55;;;563.20;2432.00;;;;;;5054626;28;20392;-76
2022/05/28 02:09:46;;;;;;;11.25;6.95;;;538.50;2406.40;;;;;;5054650;28;20091;-75
2022/05/28 02:12:34;;;;;;;10.10;6.60;;;563.20;2432.00;;;;;;5054447;28;20069;-75
2022/05/28 02:15:24;;;;;;;11.52;6.55;;;538.50;2406.40;;;;;;5054751;28;20044;-76
2022/05/28 02:18:08;;;;;;;10.52;6.93;;;538.50;2406.40;;;;;;5052961;28;20021;-74
2022/05/28 02:20:58;;;;;;;8.73;7.22;;;538.50;2406.40;;;;;;5053405;28;20032;-75
2022/05/28 02:23:31;;;;;;;9.88;5.45;;;563.20;2432.00;;;;;;5051946;28;20017;-76
2022/05/28 02:26:11;;;;;;;8.77;5.60;;;538.50;2406.40;;;;;;5054315;28;20028;-75
2022/05/28 02:28:39;;;;;;;11.18;6.80;;;563.20;2432.00;;;;;;5053855;28;20033;-77
2022/05/28 02:31:14;;;;;;;10.65;5.53;;;563.20;2432.00;;;;;;5054264;28;20013;-74
2022/05/28 02:33:41;;;;;;;9.88;5.13;;;538.50;2406.40;;;;;;5054239;28;20051;-75
2022/05/28 02:36:07;;;;;;;9.30;5.55;;;538.50;2406.40;;;;;;5054144;28;20028;-75
2022/05/28 02:38:33;;;;;;;7.00;4.03;;;538.50;2406.40;;;;;;5054065;28;20021;-74
2022/05/28 02:40:59;;;;;;;9.63;3.95;;;538.50;2406.40;;;;;;5054010;28;20130;-74
2022/05/28 02:43:25;;;;;;;8.90;3.53;;;538.40;2406.40;;;;;;5053774;28;20021;-76
2022/05/28 02:45:52;;;;;;;7.40;3.25;;;538.50;2406.40;;;;;;5053942;28;20028;-75
2022/05/28 02:48:18;;;;;;;6.47;3.35;;;538.30;2406.40;;;;;;5052735;28;20021;-75
2022/05/28 02:50:44;;;;;;;6.00;3.45;;;538.30;2406.40;;;;;;5051377;28;20384;-75
2022/05/28 02:53:11;;;;;;;8.75;3.50;;;538.30;2406.40;;;;;;5053792;28;20096;-76
2022/05/28 02:55:37;;;;;;;4.45;3.05;;;538.20;2406.40;;;;;;5053908;28;20378;-76
2022/05/28 02:58:03;;;;;;;10.23;2.90;;;538.20;2406.40;;;;;;5053552;28;20023;-75
2022/05/28 03:00:28;;;;;;;8.05;2.92;;;538.20;2406.40;;;;;;5053237;28;20060;-75
2022/05/28 03:02:54;;;;;;;9.30;2.63;;;538.20;2406.40;;;;;;5053713;28;20078;-75
2022/05/28 03:05:24;;;;;;;7.10;2.38;;;538.10;2406.40;;;;;;5053670;28;20029;-76
2022/05/28 03:07:50;;;;;;;5.28;2.53;;;538.10;2406.40;;;;;;5053318;28;20096;-75
2022/05/28 03:10:16;;;;;;;6.07;2.17;;;538.10;2406.40;;;;;;5053328;28;20024;-76
2022/05/28 03:12:42;;;;;;;5.55;2.20;;;538.10;2406.40;;;;;;5053150;28;20021;-76
2022/05/28 03:15:09;;;;;;;7.53;2.58;;;538.00;2406.40;;;;;;5053411;28;20064;-75
2022/05/28 03:17:36;;;;;;;14.02;3.25;;;537.70;2406.40;;;;;;5053458;28;20025;-75
2022/05/28 03:20:03;;;;;;;10.48;2.50;;;537.90;2406.40;;;;;;5053223;28;20036;-76
2022/05/28 03:22:29;;;;;;;8.25;2.22;;;537.90;2406.40;;;;;;5053239;28;20464;-75
2022/05/28 03:24:55;;;;;;;9.57;2.75;;;537.80;2406.40;;;;;;5053353;28;20103;-76
2022/05/28 03:27:21;;;;;;;8.88;2.40;;;512.90;2380.80;;;;;;5053098;28;20148;-75
2022/05/28 03:29:46;;;;;;;7.32;2.67;;;512.60;2380.80;;;;;;5052912;28;20037;-75
2022/05/28 03:32:12;;;;;;;5.38;2.95;;;512.30;2380.80;;;;;;5053078;28;20436;-76
2022/05/28 03:34:38;;;;;;;11.43;3.17;;;512.20;2380.80;;;;;;5053014;28;20033;-76
2022/05/28 03:37:04;;;;;;;6.97;2.70;;;512.20;2380.80;;;;;;5052939;28;20017;-75
2022/05/28 03:39:30;;;;;;;3.00;2.10;;;512.10;2380.80;;;;;;5052963;28;20118;-74
2022/05/28 03:41:55;;;;;;;5.15;2.42;;;487.30;2380.80;;;;;;5052958;28;20096;-75
2022/05/28 03:44:21;;;;;;;8.52;2.47;;;487.10;2380.80;;;;;;5051476;28;20059;-76
2022/05/28 03:46:47;;;;;;;4.45;2.03;;;487.10;2380.80;;;;;;5050251;28;20545;-75
2022/05/28 03:49:30;;;;;;;5.28;2.08;;;487.10;2380.80;;;;;;5052744;28;20067;-75
2022/05/28 03:51:56;;;;;;;3.83;2.30;;;487.10;2380.80;;;;;;5050354;28;20123;-75
2022/05/28 03:54:22;;;;;;;5.90;2.47;;;487.10;2380.80;;;;;;5051507;28;20138;-75
2022/05/28 03:56:49;;;;;;;2.92;2.20;;;487.20;2380.80;;;;;;5052790;28;20025;-75
2022/05/28 03:59:15;;;;;;;5.53;2.35;;;487.10;2380.80;;;;;;5052265;28;20140;-74
2022/05/28 04:01:41;;;;;;;5.40;2.20;;;487.10;2380.80;;;;;;5052741;28;20048;-74
2022/05/28 04:04:07;;;;;;;5.78;2.55;;;487.10;2380.80;;;;;;5052660;28;20048;-75
2022/05/28 04:06:35;;;;;;;5.50;2.28;;;487.20;2380.80;;;;;;5052687;28;20035;-74
2022/05/28 04:09:01;;;;;;;6.07;2.45;;;487.20;2380.80;;;;;;5052757;28;20044;-74
2022/05/28 04:11:27;;;;;;;4.45;2.50;;;512.40;2380.80;;;;;;5052571;28;20029;-75
2022/05/28 04:13:53;;;;;;;4.10;2.22;;;487.20;2380.80;;;;;;5052413;28;20031;-74
2022/05/28 04:16:19;;;;;;;5.50;2.30;;;487.20;2380.80;;;;;;5052542;28;20017;-75
2022/05/28 04:18:45;;;;;;;3.50;2.22;;;487.30;2380.80;;;;;;5052502;28;20678;-75
2022/05/28 04:21:11;;;;;;;4.57;2.50;;;487.30;2380.80;;;;;;5054429;28;20388;-76
2022/05/28 04:23:36;;;;;;;3.83;2.65;;;487.30;2380.80;;;;;;5056630;28;20025;-74
2022/05/28 04:26:02;;;;;;;3.67;2.00;;;487.30;2380.80;;;;;;5056590;28;20021;-74
2022/05/28 04:28:28;;;;;;;4.65;2.10;;;487.30;2380.80;;;;;;5056115;28;20032;-74
2022/05/28 04:30:54;;;;;;;3.70;2.25;;;512.00;2380.80;;;;;;5056523;28;20017;-74
2022/05/28 04:33:20;;;;;;;6.28;2.47;;;512.00;2380.80;;;;;;5056467;28;20090;-74
2022/05/28 04:35:45;;;;;;;5.10;2.17;;;512.00;2380.80;;;;;;5056327;28;20044;-75
2022/05/28 04:38:11;;;;;;;7.00;2.00;;;487.30;2380.80;;;;;;5054974;28;20021;-74
2022/05/28 04:40:37;;;;;;;4.10;1.95;;;487.30;2380.80;;;;;;5056225;28;20029;-75
2022/05/28 04:43:03;;;;;;;3.47;2.55;;;512.10;2380.80;;;;;;5056119;28;20017;-74
2022/05/28 04:45:29;;;;;;;5.05;2.30;;;512.10;2380.80;;;;;;5056065;28;20021;-75
2022/05/28 04:47:54;;;;;;;5.18;1.90;;;512.10;2380.80;;;;;;5056240;28;20027;-75
2022/05/28 04:50:20;;;;;;;5.47;2.38;;;512.10;2380.80;;;;;;5056109;28;20096;-73
2022/05/28 04:52:46;;;;;;;4.55;2.22;;;512.20;2380.80;;;;;;5056179;28;20025;-75
2022/05/28 04:55:13;;;;;;;6.32;2.42;;;512.20;2380.80;;;;;;5056120;28;20127;-76
2022/05/28 04:57:39;;;;;;;4.25;2.17;;;512.30;2380.80;;;;;;5056090;28;20025;-75
2022/05/28 05:00:10;;;;;;;4.97;2.67;;;512.30;2380.80;;;;;;5055532;28;20056;-75
2022/05/28 05:02:36;;;;;;;3.10;2.22;;;512.50;2380.80;;;;;;5053958;28;20075;-75
2022/05/28 05:05:03;;;;;;;3.78;2.10;;;512.50;2380.80;;;;;;5054847;28;20048;-75
2022/05/28 05:07:28;;;;;;;3.33;2.00;;;512.50;2380.80;;;;;;5054384;28;20067;-76
2022/05/28 05:09:54;;;;;;;3.97;1.80;;;512.20;2380.80;;;;;;5054655;28;20020;-75
2022/05/28 05:12:20;;;;;;;3.50;2.20;;;512.30;2380.80;;;;;;5055729;28;20025;-74
2022/05/28 05:14:46;;;;;;;4.35;1.83;;;512.30;2380.80;;;;;;5055513;28;20101;-75
2022/05/28 05:17:12;;;;;;;3.95;1.60;;;512.30;2380.80;;;;;;5052892;28;20471;-75
2022/05/28 05:19:37;;;;;;;4.85;2.28;;;512.30;2380.80;;;;;;5055544;28;20060;-75
2022/05/28 05:22:03;;;;;;;2.75;1.85;;;512.30;2380.80;;;;;;5055602;28;20013;-76
2022/05/28 05:24:29;;;;;;;5.50;2.17;;;512.40;2380.80;;;;;;5055382;28;20476;-77
2022/05/28 05:26:55;;;;;;;2.90;1.80;;;512.30;2380.80;;;;;;5055449;28;20063;-77
2022/05/28 05:29:21;;;;;;;5.38;1.70;;;512.30;2380.80;;;;;;5055014;28;20044;-76
2022/05/28 05:31:47;;;;;;;2.85;1.77;;;512.30;2380.80;;;;;;5053634;28;20086;-75
2022/05/28 05:34:12;;;;;;;4.18;2.65;;;512.50;2380.80;;;;;;5055288;28;20372;-75
2022/05/28 05:36:38;;;;;;;3.55;2.05;;;512.60;2380.80;;;;;;5055309;28;20024;-76
2022/05/28 05:39:04;;;;;;;5.45;2.28;;;512.60;2380.80;;;;;;5055266;28;20536;-76
2022/05/28 05:41:30;;;;;;;5.20;2.00;;;512.50;2380.80;;;;;;5055095;28;20122;-76
2022/05/28 05:43:55;;;;;;;4.00;2.03;;;512.50;2380.80;;;;;;5054954;28;20088;-77
2022/05/28 05:46:21;;;;;;;5.13;2.20;;;512.50;2380.80;;;;;;5055230;28;20025;-76
2022/05/28 05:48:47;;;;;;;5.13;1.88;;;512.70;2380.80;;;;;;5053328;28;20029;-77
2022/05/28 05:51:15;;;;;;;3.60;1.70;;;512.70;2380.80;;;;;;5054926;28;20552;-74
2022/05/28 05:53:42;;;;;;;5.45;2.28;;;512.80;2380.80;;;;;;5054909;28;20021;-75
2022/05/28 05:56:08;;;;;;;4.07;2.13;;;512.60;2380.80;;;;;;5054891;28;20056;-76
2022/05/28 05:58:35;;;;;;;3.88;1.95;;;512.60;2380.80;;;;;;5051819;28;20064;-74
2022/05/28 06:01:03;;;;;;;3.70;2.17;;;512.60;2380.80;;;;;;5054576;28;20021;-76
2022/05/28 06:03:29;;;;;;;3.67;2.38;;;512.50;2380.80;;;;;;5054690;28;20103;-77
2022/05/28 06:05:59;;;;;;;3.75;1.95;;;512.60;2380.80;;;;;;5050748;28;20056;-76
2022/05/28 06:08:26;;;;;;;6.75;2.20;;;512.60;2380.80;;;;;;5053332;28;20389;-76
2022/05/28 06:10:52;;;;;;;3.42;1.80;;;512.60;2380.80;;;;;;5054665;28;20060;-75
2022/05/28 06:13:18;;;;;;;3.95;2.00;;;512.60;2380.80;;;;;;5054483;28;20025;-75
2022/05/28 06:15:45;;;;;;;3.75;2.08;;;512.60;2380.80;;;;;;5054275;28;20028;-76
2022/05/28 06:18:13;;;;;;;3.97;2.13;;;512.60;2380.80;;;;;;5054591;28;20103;-73
2022/05/28 06:20:39;;;;;;;3.38;2.03;;;512.70;2380.80;;;;;;5054471;28;20033;-74
2022/05/28 06:23:04;;;;;;;2.80;2.00;;;512.60;2380.80;;;;;;5054379;28;20147;-75
2022/05/28 06:25:30;;;;;;;5.05;2.53;;;512.60;2380.80;;;;;;5054334;28;20086;-75
2022/05/28 06:27:57;;;;;;;3.90;2.22;;;512.60;2380.80;;;;;;5051505;28;20460;-74
2022/05/28 06:30:23;;;;;;;3.75;2.13;;;512.50;2380.80;;;;;;5053949;28;20033;-74
2022/05/28 06:32:48;;;;;;;6.82;2.30;;;512.50;2380.80;;;;;;5054234;28;20021;-74
2022/05/28 06:35:14;;;;;;;6.18;2.28;;;512.30;2380.80;;;;;;5054155;28;20062;-74
2022/05/28 06:37:40;;;;;;;4.63;2.65;;;512.30;2380.80;;;;;;5054069;28;20032;-75
2022/05/28 06:40:07;;;;;;;4.63;2.63;;;512.30;2380.80;;;;;;5054024;28;20546;-75
2022/05/28 06:42:33;;;;;;;7.90;2.25;;;512.40;2380.80;;;;;;5053615;28;20031;-74
2022/05/28 06:44:59;;;;;;;10.00;2.30;;;512.20;2380.80;;;;;;5053225;28;20049;-74
2022/05/28 06:47:26;;;;;;;4.95;2.40;;;512.30;2380.80;;;;;;5053941;28;20377;-76
2022/05/28 06:52:36;;;;;;;4.82;2.35;;;512.40;2380.80;;;;;;5053613;28;20024;-77
2022/05/28 06:55:04;;;;;;;4.72;2.40;;;512.40;2380.80;;;;;;5053835;28;20021;-75
2022/05/28 06:57:30;;;;;;;3.97;2.60;;;512.50;2380.80;;;;;;5053706;28;20035;-75
2022/05/28 06:59:58;;;;;;;5.95;2.45;;;512.40;2380.80;;;;;;5053234;28;20048;-74
2022/05/28 07:02:23;;;;;;;5.07;2.10;;;512.40;2380.80;;;;;;5053629;28;20013;-75
2022/05/28 07:04:49;;;;;;;6.53;2.60;;;512.10;2380.80;;;;;;5053591;28;20021;-74
2022/05/28 07:07:15;;;;;;;5.25;3.13;;;512.10;2380.80;;;;;;5053502;28;20063;-79
2022/05/28 07:09:41;;;;;;;4.95;3.00;;;512.20;2380.80;;;;;;5052314;28;20042;-75
2022/05/28 07:12:07;;;;;;;5.35;3.55;;;512.20;2380.80;;;;;;5053494;28;20059;-75
2022/05/28 07:14:33;;;;;;;6.28;3.17;;;512.00;2380.80;;;;;;5053118;28;20048;-74
2022/05/28 07:16:59;;;;;;;9.43;4.35;;;487.30;2380.80;;;;;;5053403;28;20461;-75
2022/05/28 07:19:25;;;;;;;7.32;3.13;;;487.30;2380.80;;;;;;5053292;28;20076;-75
2022/05/28 07:21:50;;;;;;;4.70;2.70;;;487.30;2380.80;;;;;;5053303;28;20051;-74
2022/05/28 07:24:16;;;;;;;4.10;2.40;;;512.00;2380.80;;;;;;5053295;28;20025;-76
2022/05/28 07:26:42;;;;;;;5.70;2.60;;;487.30;2380.80;;;;;;5053237;28;20046;-75
2022/05/28 07:29:08;;;;;;;4.72;2.40;;;487.20;2380.80;;;;;;5053326;28;20414;-76
2022/05/28 07:31:35;;;;;;;3.97;2.30;;;487.30;2380.80;;;;;;5053118;28;20494;-74
2022/05/28 07:34:01;;;;;;;3.55;2.45;;;487.00;2380.80;;;;;;5050411;28;20029;-77
2022/05/28 07:36:27;;;;;;;4.38;2.38;;;487.00;2380.80;;;;;;5053116;28;20033;-78
2022/05/28 07:38:53;;;;;;;3.67;2.33;;;486.80;2380.80;;;;;;5052955;28;20100;-75
2022/05/28 07:41:24;;;;;;;4.80;2.30;;;486.90;2380.80;;;;;;5052885;28;20075;-76
2022/05/28 07:43:55;;;;;;;3.97;2.40;;;487.00;2380.80;;;;;;5053001;28;20009;-76
2022/05/28 07:46:23;;;;;;;3.70;2.55;;;487.10;2380.80;;;;;;5049335;28;20021;-78
2022/05/28 07:48:50;;;;;;;6.45;3.08;;;486.80;2380.80;;;;;;5051711;28;20027;-76
2022/05/28 07:51:17;;;;;;;5.00;2.80;;;486.50;2380.80;;;;;;5052918;28;20113;-78
2022/05/28 07:53:43;;;;;;;3.63;2.67;;;486.50;2380.80;;;;;;5050737;28;20024;-77
2022/05/28 07:56:09;;;;;;;3.58;2.60;;;486.80;2380.80;;;;;;5052798;28;20063;-77
2022/05/28 07:58:36;;;;;;;4.45;2.47;;;486.40;2380.80;;;;;;5052128;28;20029;-77
2022/05/28 08:01:02;;;;;;;4.88;2.67;;;461.60;2380.80;;;;;;5050050;28;20028;-76
2022/05/28 08:03:29;;;;;;;4.78;3.30;;;461.70;2380.80;;;;;;5051554;28;20052;-78
2022/05/28 08:05:55;;;;;;;4.03;2.38;;;461.70;2380.80;;;;;;5051244;28;20036;-78
2022/05/28 08:08:23;;;;;;;5.05;2.80;;;461.60;2380.80;;;;;;5051401;28;20028;-78
2022/05/28 08:10:50;;;;;;;5.07;2.38;;;461.60;2380.80;;;;;;5052917;28;20086;-77
2022/05/28 08:13:19;;;;;;;4.15;2.20;;;486.40;2380.80;;;;;;5052745;28;20052;-78
2022/05/28 08:15:46;;;;;;;6.35;2.22;;;486.40;2380.80;;;;;;5051375;28;20534;-77
2022/05/28 08:18:14;;;;;;;5.85;2.10;;;486.40;2380.80;;;;;;5051543;28;20017;-77
2022/05/28 08:23:25;;;;;;;3.55;2.03;;;486.40;2380.80;;;;;;5050590;28;20077;-77
2022/05/28 08:25:51;;;;;;;6.25;2.80;;;486.40;2380.80;;;;;;5051209;28;20029;-79
2022/05/28 08:28:19;;;;;;;3.85;2.50;;;486.50;2380.80;;;;;;5049340;28;20054;-77
2022/05/28 08:30:45;;;;;;;6.43;3.08;;;486.60;2380.80;;;;;;5047800;28;20036;-76
2022/05/28 08:33:13;;;;;;;4.30;2.97;;;486.70;2380.80;;;;;;5051146;28;20053;-76
2022/05/28 08:35:40;;;;;;;4.85;3.30;;;486.70;2380.80;;;;;;5052393;28;20021;-75
2022/05/28 08:38:16;;;;;;;5.90;3.08;;;486.70;2380.80;;;;;;5051058;28;20037;-75
2022/05/28 08:40:47;;;;;;;10.68;2.72;;;486.70;2380.80;;;;;;5051991;28;20373;-74
2022/05/28 08:43:15;;;;;;;5.13;2.97;;;486.70;2380.80;;;;;;5052350;28;20024;-77
2022/05/28 08:45:41;;;;;;;4.38;2.35;;;486.60;2380.80;;;;;;5050775;28;20029;-75
2022/05/28 08:48:07;;;;;;;8.68;2.83;;;486.50;2380.80;;;;;;5052749;28;20017;-75
2022/05/28 08:50:45;;;;;;;6.22;2.78;;;486.40;2380.80;;;;;;5052768;28;20035;-78
2022/05/28 08:53:20;;;;;;;5.05;2.90;;;461.70;2380.80;;;;;;5052636;28;20025;-76
2022/05/28 08:55:49;;;;;;;8.25;3.25;;;461.60;2380.80;;;;;;5051601;28;20036;-77
2022/05/28 08:58:20;;;;;;;5.40;3.58;;;461.50;2380.80;;;;;;5051143;28;20029;-77
2022/05/28 09:01:06;;;;;;;6.15;3.47;;;461.50;2380.80;;;;;;5050940;28;20053;-77
2022/05/28 09:03:47;;;;;;;9.52;3.30;;;461.30;2380.80;;;;;;5051257;28;20021;-77
2022/05/28 09:06:24;;;;;;;7.63;2.95;;;461.40;2380.80;;;;;;5051333;28;20116;-77
2022/05/28 09:08:54;;;;;;;5.00;2.22;;;461.30;2380.80;;;;;;5054802;28;20028;-78
2022/05/28 09:11:45;;;;;;;3.53;2.10;;;461.10;2380.80;;;;;;5056344;28;20016;-77
2022/05/28 09:14:29;;;;;;;5.40;2.50;;;461.10;2380.80;;;;;;5056255;28;20029;-77
2022/05/28 09:17:03;;;;;;;6.13;2.35;;;461.00;2380.80;;;;;;5055016;28;20037;-78
2022/05/28 09:19:39;;;;;;;3.55;2.20;;;461.10;2380.80;;;;;;5054656;28;20041;-77
2022/05/28 09:22:05;;;;;;;;;;;461.00;2380.80;;;;;;5055495;28;20029;-77
2022/05/28 09:24:32;;;;;;;3.23;2.23;;;460.80;2380.80;;;;;;5055934;28;20370;-76
2022/05/28 09:27:16;;;;;;;4.72;2.85;;;460.90;2380.80;;;;;;5055336;28;20023;-77
2022/05/28 09:29:51;;;;;;;4.97;3.20;;;436.10;2355.20;;;;;;5053476;28;20120;-77
2022/05/28 09:32:19;;;;;;;5.40;2.90;;;460.90;2380.80;;;;;;5054872;28;20020;-78
2022/05/28 09:35:04;;;;;;;5.00;2.40;;;460.80;2380.80;;;;;;5053804;28;20044;-77
2022/05/28 09:37:38;;;;;;;9.38;3.25;;;460.80;2380.80;;;;;;5052819;28;20100;-77
2022/05/28 09:40:15;;;;;;;9.60;3.47;;;460.80;2380.80;;;;;;5050448;28;20473;-77
2022/05/28 09:42:56;;;;;;;6.78;3.08;;;460.90;2380.80;;;;;;5045907;28;20025;-76
2022/05/28 09:45:32;;;;;;;3.75;2.05;;;461.10;2380.80;;;;;;5053621;28;20116;-76
2022/05/28 09:47:57;;;;;;;5.55;3.00;;;461.20;2380.80;;;;;;5054820;28;20495;-77
2022/05/28 09:50:39;;;;;;;6.65;3.00;;;461.20;2380.80;;;;;;5053517;28;20029;-74
2022/05/28 09:55:53;;;;;;;6.22;2.90;;;;;;;;;;5055731;28;20124;-78
2022/05/28 09:58:23;;;;;;;6.95;3.72;;;436.10;2355.20;;;;;;5053576;28;20017;-77
2022/05/28 10:00:49;;;;;;;11.88;3.72;;;460.80;2380.80;;;;;;5053603;28;20045;-76
2022/05/28 10:06:15;;;;;;;6.78;3.03;;;436.10;2355.20;;;;;;5055064;28;20121;-77
2022/05/28 10:08:41;;;;;;;10.07;3.90;;;460.80;2380.80;;;;;;5052871;28;20033;-77
2022/05/28 10:11:11;;;;;;;5.78;3.70;;;460.90;2380.80;;;;;;5054317;28;20380;-77
2022/05/28 10:13:50;;;;;;;6.60;3.47;;;460.90;2380.80;;;;;;5035169;28;20080;-77
2022/05/28 10:16:22;;;;;;;9.25;4.57;;;461.10;2380.80;;;;;;5035283;28;20022;-77
2022/05/28 10:18:55;;;;;;;7.10;4.05;;;460.90;2380.80;;;;;;5034852;28;20181;-76
2022/05/28 10:21:47;;;;;;;4.85;3.17;;;461.10;2380.80;;;;;;5033784;28;20025;-76
2022/05/28 10:24:18;;;;;;;8.00;3.60;;;461.20;2380.80;;;;;;5034907;28;20097;-77
2022/05/28 10:26:48;;;;;;;4.80;3.38;;;461.40;2380.80;;;;;;5050032;28;20029;-77
2022/05/28 10:29:38;;;;;;;8.65;4.28;;;461.40;2380.80;;;;;;5053427;28;20346;-77
2022/05/28 10:32:17;;;;;;;7.70;4.65;;;461.30;2380.80;;;;;;5052119;28;20024;-75
2022/05/28 10:34:42;;;;;;;8.98;5.28;;;461.20;2380.80;;;;;;5052834;28;20484;-76
2022/05/28 10:37:16;;;;;;;7.32;4.57;;;461.20;2380.80;;;;;;5052454;28;20032;-78
2022/05/28 10:39:43;;;;;;;7.03;4.45;;;461.10;2380.80;;;;;;5052547;28;20033;-76
2022/05/28 10:42:11;;;;;;;8.45;4.18;;;461.30;2380.80;;;;;;5052876;28;20035;-77
2022/05/28 10:44:38;;;;;;;10.48;5.50;;;461.30;2380.80;;;;;;5052763;28;20111;-78
2022/05/28 10:47:17;;;;;;;9.45;5.60;;;461.20;2380.80;;;;;;5049783;28;20013;-78
2022/05/28 10:49:49;;;;;;;11.73;5.93;;;;;;;;;;5054403;28;20060;-78
2022/05/28 10:52:31;;;;;;;9.45;5.63;;;461.40;2380.80;;;;;;5052594;28;20021;-77
2022/05/28 10:55:05;;;;;;;7.93;5.30;;;461.50;2380.80;;;;;;5052800;28;20029;-77
2022/05/28 10:57:55;;;;;;;14.23;4.95;;;461.50;2380.80;;;;;;5053571;28;20178;-78
2022/05/28 11:00:43;;;;;;;7.85;4.60;;;461.50;2380.80;;;;;;5049010;28;20072;-78
2022/05/28 11:03:25;;;;;;;7.88;4.88;;;461.60;2380.80;;;;;;5051118;28;20068;-77
2022/05/28 11:06:12;;;;;;;8.65;5.07;;;461.50;2380.80;;;;;;5051404;28;20020;-76
2022/05/28 11:09:02;;;;;;;7.43;3.78;;;461.50;2380.80;;;;;;5053448;28;20480;-79
2022/05/28 11:11:27;;;;;;;5.60;2.90;;;461.50;2380.80;;;;;;5050938;28;20025;-78
2022/05/28 11:13:53;;;;;;;9.15;4.30;;;461.60;2380.80;;;;;;5052178;28;20028;-80
2022/05/28 11:16:52;;;;;;;6.45;4.10;;;461.50;2380.80;;;;;;5052301;28;20108;-77
2022/05/28 11:19:49;;;;;;;5.93;4.15;;;461.50;2380.80;;;;;;5053313;28;20028;-77
2022/05/28 11:22:39;;;;;;;11.15;4.55;;;461.50;2380.80;;;;;;5051645;28;20025;-79
2022/05/28 11:25:16;;;;;;;10.77;5.63;;;461.40;2380.80;;;;;;5051424;28;20013;-79
2022/05/28 11:28:11;;;;;;;7.13;5.43;;;461.30;2380.80;;;;;;5046363;28;20024;-76
2022/05/28 11:30:51;;;;;;;7.57;5.53;;;461.20;2380.80;;;;;;5052358;28;20033;-77
2022/05/28 11:33:27;;;;;;;8.90;5.05;;;461.10;2380.80;;;;;;5052842;28;20021;-75
2022/05/28 11:36:12;;;;;;;11.75;5.07;;;460.90;2380.80;;;;;;5051795;28;20538;-76
2022/05/28 11:38:49;;;;;;;7.72;5.28;;;461.00;2380.80;;;;;;5051103;28;20106;-76
2022/05/28 11:41:43;;;;;;;6.22;4.60;;;460.90;2380.80;;;;;;5052610;28;20033;-76
2022/05/28 11:44:37;;;;;;;8.80;5.20;;;461.00;2380.80;;;;;;5049640;28;20031;-74
2022/05/28 11:47:06;;;;;;;5.00;3.15;;;461.10;2380.80;;;;;;5052415;28;20024;-79
2022/05/28 11:52:45;;;;;;;5.90;2.10;;;461.20;2380.80;;;;;;5052532;28;20036;-75
2022/05/28 11:55:24;;;;;;;5.05;2.10;;;461.20;2380.80;;;;;;5052602;28;20021;-74
2022/05/28 11:58:01;;;;;;;5.10;1.92;;;461.20;2380.80;;;;;;5052483;28;20499;-77
2022/05/28 12:00:32;;;;;;;6.35;2.58;;;461.20;2380.80;;;;;;5051936;28;20409;-73
2022/05/28 12:03:24;;;;;;;4.55;2.58;;;461.30;2380.80;;;;;;5049684;28;20029;-81
2022/05/28 12:06:14;;;;;;;5.13;2.38;;;461.20;2380.80;;;;;;5049945;28;20036;-74
2022/05/28 12:08:46;;;;;;;6.93;2.58;;;461.30;2380.80;;;;;;5051436;28;20027;-77
2022/05/28 12:11:27;;;;;;;6.35;3.05;;;461.30;2380.80;;;;;;5051867;28;20029;-78
2022/05/28 12:14:06;;;;;;;9.32;3.60;;;461.40;2380.80;;;;;;5051085;28;20108;-74
2022/05/28 12:16:40;;;;;;;4.90;2.50;;;461.50;2380.80;;;;;;5051981;28;20040;-74
2022/05/28 12:19:21;;;;;;;5.32;2.30;;;461.50;2380.80;;;;;;5050947;28;20547;-74
2022/05/28 12:21:47;;;;;;;6.15;2.78;;;461.50;2380.80;;;;;;5051645;28;20087;-73
2022/05/28 12:24:19;;;;;;;6.05;2.35;;;461.50;2380.80;;;;;;5050101;28;20028;-73
2022/05/28 12:29:54;;;;;;;7.25;2.65;;;461.60;2380.80;;;;;;5051088;28;20620;-75
2022/05/28 12:32:24;;;;;;;5.65;2.22;;;461.70;2380.80;;;;;;5047068;28;20033;-74
2022/05/28 12:34:59;;;;;;;4.47;2.40;;;486.40;2380.80;;;;;;5048906;28;20021;-74
2022/05/28 12:37:30;;;;;;;5.30;2.83;;;461.70;2380.80;;;;;;5047876;28;20508;-73
2022/05/28 12:40:20;;;;;;;3.65;2.33;;;461.70;2380.80;;;;;;5055160;28;20083;-75
2022/05/28 12:42:47;;;;;;;5.50;3.03;;;461.60;2380.80;;;;;;5059322;28;20376;-74
2022/05/28 12:45:17;;;;;;;4.43;2.58;;;461.60;2380.80;;;;;;5055164;28;20492;-74
2022/05/28 12:47:44;;;;;;;7.40;2.28;;;461.60;2380.80;;;;;;5054754;28;20025;-74
2022/05/28 12:50:27;;;;;;;6.55;2.08;;;461.50;2380.80;;;;;;5054980;28;20375;-75
2022/05/28 12:53:05;;;;;;;5.78;2.08;;;461.60;2380.80;;;;;;5054249;28;20017;-74